sensor_id;sensor_type;location;lat;lon;timestamp;P1;durP1;ratioP1;P2;durP2;ratioP2
9918;SDS011;4998;51.024;13.828;2024-03-29T00:02:13;1.43;;;1.33;;
9918;SDS011;4998;51.024;13.828;2024-03-29T00:04:39;1.23;;;1.20;;
9918;SDS011;4998;51.024;13.828;2024-03-29T00:07:06;1.20;;;1.10;;
9918;SDS011;4998;51.024;13.828;2024-03-29T00:09:33;1.00;;;1.00;;
9918;SDS011;4998;51.024;13.828;2024-03-29T00:11:59;1.20;;;1.10;;
9918;SDS011;4998;51.024;13.828;2024-03-29T00:14:26;1.37;;;1.27;;
9918;SDS011;4998;51.024;13.828;2024-03-29T00:16:52;2.50;;;1.03;;
9918;SDS011;4998;51.024;13.828;2024-03-29T00:19:18;7.23;;;1.03;;
9918;SDS011;4998;51.024;13.828;2024-03-29T00:21:44;1.13;;;1.13;;
9918;SDS011;4998;51.024;13.828;2024-03-29T00:24:11;1.13;;;1.10;;
9918;SDS011;4998;51.024;13.828;2024-03-29T00:26:39;2.47;;;0.93;;
9918;SDS011;4998;51.024;13.828;2024-03-29T00:29:05;1.17;;;1.10;;
9918;SDS011;4998;51.024;13.828;2024-03-29T00:31:32;1.00;;;1.00;;
9918;SDS011;4998;51.024;13.828;2024-03-29T00:33:58;1.40;;;1.30;;
9918;SDS011;4998;51.024;13.828;2024-03-29T00:36:24;1.27;;;1.23;;
9918;SDS011;4998;51.024;13.828;2024-03-29T00:38:50;1.50;;;1.40;;
9918;SDS011;4998;51.024;13.828;2024-03-29T00:41:16;1.10;;;1.00;;
9918;SDS011;4998;51.024;13.828;2024-03-29T00:43:44;1.20;;;1.10;;
9918;SDS011;4998;51.024;13.828;2024-03-29T00:46:10;2.83;;;1.40;;
9918;SDS011;4998;51.024;13.828;2024-03-29T00:48:36;1.40;;;1.30;;
9918;SDS011;4998;51.024;13.828;2024-03-29T00:51:03;1.97;;;1.40;;
9918;SDS011;4998;51.024;13.828;2024-03-29T00:53:29;1.10;;;1.10;;
9918;SDS011;4998;51.024;13.828;2024-03-29T00:55:55;2.30;;;1.20;;
9918;SDS011;4998;51.024;13.828;2024-03-29T00:58:22;2.90;;;1.40;;
9918;SDS011;4998;51.024;13.828;2024-03-29T01:00:49;1.43;;;1.33;;
9918;SDS011;4998;51.024;13.828;2024-03-29T01:03:16;1.50;;;1.40;;
9918;SDS011;4998;51.024;13.828;2024-03-29T01:05:42;1.27;;;1.10;;
9918;SDS011;4998;51.024;13.828;2024-03-29T01:08:08;2.57;;;1.20;;
9918;SDS011;4998;51.024;13.828;2024-03-29T01:10:34;1.50;;;1.40;;
9918;SDS011;4998;51.024;13.828;2024-03-29T01:13:00;1.80;;;1.47;;
9918;SDS011;4998;51.024;13.828;2024-03-29T01:15:27;1.90;;;1.40;;
9918;SDS011;4998;51.024;13.828;2024-03-29T01:17:54;1.50;;;1.40;;
9918;SDS011;4998;51.024;13.828;2024-03-29T01:20:20;1.70;;;1.53;;
9918;SDS011;4998;51.024;13.828;2024-03-29T01:22:47;1.50;;;1.40;;
9918;SDS011;4998;51.024;13.828;2024-03-29T01:25:13;3.73;;;1.50;;
9918;SDS011;4998;51.024;13.828;2024-03-29T01:27:39;1.47;;;1.37;;
9918;SDS011;4998;51.024;13.828;2024-03-29T01:30:06;1.87;;;1.63;;
9918;SDS011;4998;51.024;13.828;2024-03-29T01:32:33;1.77;;;1.60;;
9918;SDS011;4998;51.024;13.828;2024-03-29T01:35:01;1.70;;;1.40;;
9918;SDS011;4998;51.024;13.828;2024-03-29T01:37:27;1.73;;;1.50;;
9918;SDS011;4998;51.024;13.828;2024-03-29T01:39:53;2.77;;;1.60;;
9918;SDS011;4998;51.024;13.828;2024-03-29T01:42:20;1.40;;;1.27;;
9918;SDS011;4998;51.024;13.828;2024-03-29T01:44:46;1.70;;;1.60;;
9918;SDS011;4998;51.024;13.828;2024-03-29T01:47:13;1.47;;;1.33;;
9918;SDS011;4998;51.024;13.828;2024-03-29T01:49:40;1.40;;;1.30;;
9918;SDS011;4998;51.024;13.828;2024-03-29T01:52:09;2.77;;;2.00;;
9918;SDS011;4998;51.024;13.828;2024-03-29T01:54:36;1.50;;;1.40;;
9918;SDS011;4998;51.024;13.828;2024-03-29T01:57:04;2.03;;;1.60;;
9918;SDS011;4998;51.024;13.828;2024-03-29T01:59:32;1.60;;;1.50;;
9918;SDS011;4998;51.024;13.828;2024-03-29T02:02:00;1.80;;;1.70;;
9918;SDS011;4998;51.024;13.828;2024-03-29T02:04:28;1.47;;;1.20;;
9918;SDS011;4998;51.024;13.828;2024-03-29T02:06:55;1.60;;;1.50;;
9918;SDS011;4998;51.024;13.828;2024-03-29T02:09:24;2.07;;;1.57;;
9918;SDS011;4998;51.024;13.828;2024-03-29T02:11:52;3.00;;;1.33;;
9918;SDS011;4998;51.024;13.828;2024-03-29T02:14:19;2.73;;;2.33;;
9918;SDS011;4998;51.024;13.828;2024-03-29T02:16:46;2.00;;;1.30;;
9918;SDS011;4998;51.024;13.828;2024-03-29T02:19:14;1.70;;;1.50;;
9918;SDS011;4998;51.024;13.828;2024-03-29T02:21:42;3.90;;;1.50;;
9918;SDS011;4998;51.024;13.828;2024-03-29T02:24:15;1.70;;;1.50;;
9918;SDS011;4998;51.024;13.828;2024-03-29T02:26:43;1.50;;;1.40;;
9918;SDS011;4998;51.024;13.828;2024-03-29T02:29:12;1.33;;;1.23;;
9918;SDS011;4998;51.024;13.828;2024-03-29T02:31:39;1.60;;;1.50;;
9918;SDS011;4998;51.024;13.828;2024-03-29T02:34:06;1.67;;;1.57;;
9918;SDS011;4998;51.024;13.828;2024-03-29T02:36:34;1.77;;;1.20;;
9918;SDS011;4998;51.024;13.828;2024-03-29T02:39:02;1.43;;;1.33;;
9918;SDS011;4998;51.024;13.828;2024-03-29T02:41:31;1.30;;;1.20;;
9918;SDS011;4998;51.024;13.828;2024-03-29T02:43:58;2.13;;;1.30;;
9918;SDS011;4998;51.024;13.828;2024-03-29T02:46:25;1.80;;;1.40;;
9918;SDS011;4998;51.024;13.828;2024-03-29T02:48:51;1.73;;;1.40;;
9918;SDS011;4998;51.024;13.828;2024-03-29T02:51:18;1.73;;;1.40;;
9918;SDS011;4998;51.024;13.828;2024-03-29T02:53:44;3.23;;;1.50;;
9918;SDS011;4998;51.024;13.828;2024-03-29T02:56:12;1.93;;;1.60;;
9918;SDS011;4998;51.024;13.828;2024-03-29T02:58:41;2.50;;;1.30;;
9918;SDS011;4998;51.024;13.828;2024-03-29T03:01:08;1.43;;;1.30;;
9918;SDS011;4998;51.024;13.828;2024-03-29T03:03:34;2.30;;;1.37;;
9918;SDS011;4998;51.024;13.828;2024-03-29T03:06:02;3.07;;;1.67;;
9918;SDS011;4998;51.024;13.828;2024-03-29T03:08:28;1.83;;;1.50;;
9918;SDS011;4998;51.024;13.828;2024-03-29T03:11:13;2.90;;;1.50;;
9918;SDS011;4998;51.024;13.828;2024-03-29T03:13:42;3.17;;;1.40;;
9918;SDS011;4998;51.024;13.828;2024-03-29T03:16:10;1.90;;;1.70;;
9918;SDS011;4998;51.024;13.828;2024-03-29T03:18:37;2.50;;;1.57;;
9918;SDS011;4998;51.024;13.828;2024-03-29T03:21:03;2.53;;;1.47;;
9918;SDS011;4998;51.024;13.828;2024-03-29T03:23:30;1.67;;;1.47;;
9918;SDS011;4998;51.024;13.828;2024-03-29T03:25:57;2.60;;;1.70;;
9918;SDS011;4998;51.024;13.828;2024-03-29T03:28:25;1.67;;;1.57;;
9918;SDS011;4998;51.024;13.828;2024-03-29T03:30:53;2.20;;;1.90;;
9918;SDS011;4998;51.024;13.828;2024-03-29T03:33:20;1.40;;;1.30;;
9918;SDS011;4998;51.024;13.828;2024-03-29T03:35:47;1.70;;;1.30;;
9918;SDS011;4998;51.024;13.828;2024-03-29T03:38:14;1.40;;;1.30;;
9918;SDS011;4998;51.024;13.828;2024-03-29T03:40:41;2.23;;;1.70;;
9918;SDS011;4998;51.024;13.828;2024-03-29T03:43:08;2.47;;;1.33;;
9918;SDS011;4998;51.024;13.828;2024-03-29T03:45:35;2.10;;;1.20;;
9918;SDS011;4998;51.024;13.828;2024-03-29T03:48:05;1.50;;;1.40;;
9918;SDS011;4998;51.024;13.828;2024-03-29T03:50:32;1.37;;;1.20;;
9918;SDS011;4998;51.024;13.828;2024-03-29T03:52:59;1.63;;;1.10;;
9918;SDS011;4998;51.024;13.828;2024-03-29T03:55:26;1.40;;;1.30;;
9918;SDS011;4998;51.024;13.828;2024-03-29T03:57:53;4.30;;;1.80;;
9918;SDS011;4998;51.024;13.828;2024-03-29T04:00:19;2.83;;;1.50;;
9918;SDS011;4998;51.024;13.828;2024-03-29T04:02:49;1.50;;;1.20;;
9918;SDS011;4998;51.024;13.828;2024-03-29T04:05:17;3.10;;;1.60;;
9918;SDS011;4998;51.024;13.828;2024-03-29T04:07:45;2.43;;;1.60;;
9918;SDS011;4998;51.024;13.828;2024-03-29T04:10:12;1.80;;;1.50;;
9918;SDS011;4998;51.024;13.828;2024-03-29T04:12:39;1.20;;;1.10;;
9918;SDS011;4998;51.024;13.828;2024-03-29T04:15:06;1.73;;;1.63;;
9918;SDS011;4998;51.024;13.828;2024-03-29T04:17:33;2.17;;;1.27;;
9918;SDS011;4998;51.024;13.828;2024-03-29T04:20:00;1.70;;;1.60;;
9918;SDS011;4998;51.024;13.828;2024-03-29T04:22:29;5.73;;;1.33;;
9918;SDS011;4998;51.024;13.828;2024-03-29T04:24:56;2.50;;;1.60;;
9918;SDS011;4998;51.024;13.828;2024-03-29T04:27:23;1.60;;;1.50;;
9918;SDS011;4998;51.024;13.828;2024-03-29T04:29:51;1.40;;;1.30;;
9918;SDS011;4998;51.024;13.828;2024-03-29T04:32:18;1.87;;;1.30;;
9918;SDS011;4998;51.024;13.828;2024-03-29T04:34:46;1.57;;;1.47;;
9918;SDS011;4998;51.024;13.828;2024-03-29T04:37:14;1.33;;;1.30;;
9918;SDS011;4998;51.024;13.828;2024-03-29T04:39:43;2.60;;;1.63;;
9918;SDS011;4998;51.024;13.828;2024-03-29T04:42:11;1.57;;;1.47;;
9918;SDS011;4998;51.024;13.828;2024-03-29T04:44:40;2.40;;;1.60;;
9918;SDS011;4998;51.024;13.828;2024-03-29T04:47:07;1.17;;;1.13;;
9918;SDS011;4998;51.024;13.828;2024-03-29T04:49:35;1.43;;;1.33;;
9918;SDS011;4998;51.024;13.828;2024-03-29T04:52:03;1.40;;;1.20;;
9918;SDS011;4998;51.024;13.828;2024-03-29T04:54:31;2.00;;;1.20;;
9918;SDS011;4998;51.024;13.828;2024-03-29T04:57:00;1.50;;;1.40;;
9918;SDS011;4998;51.024;13.828;2024-03-29T04:59:28;1.90;;;1.13;;
9918;SDS011;4998;51.024;13.828;2024-03-29T05:01:56;1.30;;;1.20;;
9918;SDS011;4998;51.024;13.828;2024-03-29T05:04:26;1.20;;;1.20;;
9918;SDS011;4998;51.024;13.828;2024-03-29T05:06:54;1.20;;;1.10;;
9918;SDS011;4998;51.024;13.828;2024-03-29T05:09:22;1.57;;;1.30;;
9918;SDS011;4998;51.024;13.828;2024-03-29T05:11:50;1.33;;;1.23;;
9918;SDS011;4998;51.024;13.828;2024-03-29T05:14:19;1.20;;;1.10;;
9918;SDS011;4998;51.024;13.828;2024-03-29T05:16:47;2.20;;;1.40;;
9918;SDS011;4998;51.024;13.828;2024-03-29T05:19:15;1.27;;;1.20;;
9918;SDS011;4998;51.024;13.828;2024-03-29T05:21:42;1.70;;;1.20;;
9918;SDS011;4998;51.024;13.828;2024-03-29T05:24:09;3.07;;;1.50;;
9918;SDS011;4998;51.024;13.828;2024-03-29T05:26:37;1.27;;;1.27;;
9918;SDS011;4998;51.024;13.828;2024-03-29T05:29:04;1.40;;;1.10;;
9918;SDS011;4998;51.024;13.828;2024-03-29T05:31:34;1.60;;;1.30;;
9918;SDS011;4998;51.024;13.828;2024-03-29T05:34:01;1.70;;;1.50;;
9918;SDS011;4998;51.024;13.828;2024-03-29T05:36:28;1.93;;;1.30;;
9918;SDS011;4998;51.024;13.828;2024-03-29T05:38:56;2.20;;;1.20;;
9918;SDS011;4998;51.024;13.828;2024-03-29T05:41:23;2.03;;;1.30;;
9918;SDS011;4998;51.024;13.828;2024-03-29T05:43:50;1.20;;;1.10;;
9918;SDS011;4998;51.024;13.828;2024-03-29T05:46:17;2.87;;;1.60;;
9918;SDS011;4998;51.024;13.828;2024-03-29T05:48:46;2.33;;;1.27;;
9918;SDS011;4998;51.024;13.828;2024-03-29T05:51:13;1.33;;;1.17;;
9918;SDS011;4998;51.024;13.828;2024-03-29T05:53:40;1.73;;;1.57;;
9918;SDS011;4998;51.024;13.828;2024-03-29T05:56:07;1.70;;;1.20;;
9918;SDS011;4998;51.024;13.828;2024-03-29T05:58:35;1.13;;;1.10;;
9918;SDS011;4998;51.024;13.828;2024-03-29T06:01:02;1.40;;;1.30;;
9918;SDS011;4998;51.024;13.828;2024-03-29T06:03:29;1.57;;;1.47;;
9918;SDS011;4998;51.024;13.828;2024-03-29T06:05:58;1.30;;;1.20;;
9918;SDS011;4998;51.024;13.828;2024-03-29T06:08:25;1.60;;;1.30;;
9918;SDS011;4998;51.024;13.828;2024-03-29T06:10:52;1.13;;;1.03;;
9918;SDS011;4998;51.024;13.828;2024-03-29T06:13:22;3.87;;;1.30;;
9918;SDS011;4998;51.024;13.828;2024-03-29T06:16:15;1.40;;;1.30;;
9918;SDS011;4998;51.024;13.828;2024-03-29T06:19:00;1.40;;;1.30;;
9918;SDS011;4998;51.024;13.828;2024-03-29T06:21:29;2.93;;;1.30;;
9918;SDS011;4998;51.024;13.828;2024-03-29T06:24:03;2.80;;;1.33;;
9918;SDS011;4998;51.024;13.828;2024-03-29T06:26:31;1.33;;;1.23;;
9918;SDS011;4998;51.024;13.828;2024-03-29T06:28:58;2.37;;;1.33;;
9918;SDS011;4998;51.024;13.828;2024-03-29T06:31:26;1.30;;;1.20;;
9918;SDS011;4998;51.024;13.828;2024-03-29T06:33:53;1.23;;;1.13;;
9918;SDS011;4998;51.024;13.828;2024-03-29T06:36:20;1.30;;;1.20;;
9918;SDS011;4998;51.024;13.828;2024-03-29T06:38:50;1.53;;;1.20;;
9918;SDS011;4998;51.024;13.828;2024-03-29T06:41:17;1.50;;;1.40;;
9918;SDS011;4998;51.024;13.828;2024-03-29T06:43:44;1.07;;;1.07;;
9918;SDS011;4998;51.024;13.828;2024-03-29T06:46:11;1.40;;;1.30;;
9918;SDS011;4998;51.024;13.828;2024-03-29T06:48:39;1.40;;;1.30;;
9918;SDS011;4998;51.024;13.828;2024-03-29T06:51:06;1.20;;;1.10;;
9918;SDS011;4998;51.024;13.828;2024-03-29T06:53:34;1.67;;;1.43;;
9918;SDS011;4998;51.024;13.828;2024-03-29T06:56:03;1.90;;;1.80;;
9918;SDS011;4998;51.024;13.828;2024-03-29T06:58:30;1.90;;;1.30;;
9918;SDS011;4998;51.024;13.828;2024-03-29T07:00:58;1.50;;;1.40;;
9918;SDS011;4998;51.024;13.828;2024-03-29T07:03:25;1.47;;;1.37;;
9918;SDS011;4998;51.024;13.828;2024-03-29T07:05:52;1.33;;;1.23;;
9918;SDS011;4998;51.024;13.828;2024-03-29T07:08:19;2.30;;;1.30;;
9918;SDS011;4998;51.024;13.828;2024-03-29T07:10:47;1.10;;;1.10;;
9918;SDS011;4998;51.024;13.828;2024-03-29T07:13:15;1.30;;;1.20;;
9918;SDS011;4998;51.024;13.828;2024-03-29T07:15:50;1.30;;;1.20;;
9918;SDS011;4998;51.024;13.828;2024-03-29T07:18:17;1.70;;;1.60;;
9918;SDS011;4998;51.024;13.828;2024-03-29T07:20:45;2.00;;;1.80;;
9918;SDS011;4998;51.024;13.828;2024-03-29T07:23:12;1.33;;;1.23;;
9918;SDS011;4998;51.024;13.828;2024-03-29T07:25:39;1.33;;;1.00;;
9918;SDS011;4998;51.024;13.828;2024-03-29T07:28:07;1.20;;;1.10;;
9918;SDS011;4998;51.024;13.828;2024-03-29T07:30:36;1.30;;;1.20;;
9918;SDS011;4998;51.024;13.828;2024-03-29T07:33:04;1.53;;;1.40;;
9918;SDS011;4998;51.024;13.828;2024-03-29T07:35:31;1.50;;;1.40;;
9918;SDS011;4998;51.024;13.828;2024-03-29T07:37:58;2.37;;;1.27;;
9918;SDS011;4998;51.024;13.828;2024-03-29T07:40:26;1.27;;;1.07;;
9918;SDS011;4998;51.024;13.828;2024-03-29T07:42:53;1.07;;;1.07;;
9918;SDS011;4998;51.024;13.828;2024-03-29T07:45:21;1.00;;;1.00;;
9918;SDS011;4998;51.024;13.828;2024-03-29T07:47:49;1.20;;;1.10;;
9918;SDS011;4998;51.024;13.828;2024-03-29T07:50:17;1.00;;;1.00;;
9918;SDS011;4998;51.024;13.828;2024-03-29T07:52:45;1.23;;;1.13;;
9918;SDS011;4998;51.024;13.828;2024-03-29T07:55:12;1.73;;;1.30;;
9918;SDS011;4998;51.024;13.828;2024-03-29T07:57:39;1.20;;;1.13;;
9918;SDS011;4998;51.024;13.828;2024-03-29T08:00:07;1.27;;;1.17;;
9918;SDS011;4998;51.024;13.828;2024-03-29T08:02:35;1.03;;;1.00;;
9918;SDS011;4998;51.024;13.828;2024-03-29T08:05:05;1.20;;;1.10;;
9918;SDS011;4998;51.024;13.828;2024-03-29T08:07:32;1.37;;;1.07;;
9918;SDS011;4998;51.024;13.828;2024-03-29T08:09:59;2.20;;;1.20;;
9918;SDS011;4998;51.024;13.828;2024-03-29T08:12:27;1.40;;;1.30;;
9918;SDS011;4998;51.024;13.828;2024-03-29T08:14:55;1.83;;;1.30;;
9918;SDS011;4998;51.024;13.828;2024-03-29T08:17:22;1.57;;;1.13;;
9918;SDS011;4998;51.024;13.828;2024-03-29T08:19:50;4.27;;;1.30;;
9918;SDS011;4998;51.024;13.828;2024-03-29T08:22:19;0.90;;;0.90;;
9918;SDS011;4998;51.024;13.828;2024-03-29T08:24:46;2.53;;;1.10;;
9918;SDS011;4998;51.024;13.828;2024-03-29T08:27:13;1.37;;;1.27;;
9918;SDS011;4998;51.024;13.828;2024-03-29T08:29:41;1.50;;;1.40;;
9918;SDS011;4998;51.024;13.828;2024-03-29T08:32:09;1.30;;;1.20;;
9918;SDS011;4998;51.024;13.828;2024-03-29T08:34:36;1.70;;;1.40;;
9918;SDS011;4998;51.024;13.828;2024-03-29T08:37:04;1.67;;;1.40;;
9918;SDS011;4998;51.024;13.828;2024-03-29T08:39:32;2.63;;;1.40;;
9918;SDS011;4998;51.024;13.828;2024-03-29T08:42:02;1.27;;;1.17;;
9918;SDS011;4998;51.024;13.828;2024-03-29T08:44:31;1.40;;;1.30;;
9918;SDS011;4998;51.024;13.828;2024-03-29T08:46:59;1.50;;;1.20;;
9918;SDS011;4998;51.024;13.828;2024-03-29T08:49:28;1.40;;;1.30;;
9918;SDS011;4998;51.024;13.828;2024-03-29T08:51:55;8.33;;;1.60;;
9918;SDS011;4998;51.024;13.828;2024-03-29T08:54:22;1.00;;;1.00;;
9918;SDS011;4998;51.024;13.828;2024-03-29T08:56:51;1.03;;;1.00;;
9918;SDS011;4998;51.024;13.828;2024-03-29T08:59:18;0.80;;;0.80;;
9918;SDS011;4998;51.024;13.828;2024-03-29T09:01:46;1.20;;;1.10;;
9918;SDS011;4998;51.024;13.828;2024-03-29T09:04:14;1.27;;;1.17;;
9918;SDS011;4998;51.024;13.828;2024-03-29T09:06:42;1.33;;;1.23;;
9918;SDS011;4998;51.024;13.828;2024-03-29T09:09:10;1.20;;;1.10;;
9918;SDS011;4998;51.024;13.828;2024-03-29T09:11:38;1.70;;;1.00;;
9918;SDS011;4998;51.024;13.828;2024-03-29T09:14:07;2.60;;;1.20;;
9918;SDS011;4998;51.024;13.828;2024-03-29T09:16:35;1.47;;;1.37;;
9918;SDS011;4998;51.024;13.828;2024-03-29T09:19:02;1.73;;;0.90;;
9918;SDS011;4998;51.024;13.828;2024-03-29T09:21:30;1.03;;;0.93;;
9918;SDS011;4998;51.024;13.828;2024-03-29T09:23:57;1.00;;;1.00;;
9918;SDS011;4998;51.024;13.828;2024-03-29T09:26:25;3.17;;;1.00;;
9918;SDS011;4998;51.024;13.828;2024-03-29T09:28:53;1.40;;;0.97;;
9918;SDS011;4998;51.024;13.828;2024-03-29T09:31:21;1.80;;;1.10;;
9918;SDS011;4998;51.024;13.828;2024-03-29T09:33:49;1.87;;;1.20;;
9918;SDS011;4998;51.024;13.828;2024-03-29T09:36:19;1.20;;;1.10;;
9918;SDS011;4998;51.024;13.828;2024-03-29T09:38:48;1.00;;;1.00;;
9918;SDS011;4998;51.024;13.828;2024-03-29T09:41:16;1.63;;;1.37;;
9918;SDS011;4998;51.024;13.828;2024-03-29T09:43:45;1.17;;;1.03;;
9918;SDS011;4998;51.024;13.828;2024-03-29T09:46:14;1.20;;;1.10;;
9918;SDS011;4998;51.024;13.828;2024-03-29T09:48:44;3.47;;;1.30;;
9918;SDS011;4998;51.024;13.828;2024-03-29T09:51:13;2.60;;;1.20;;
9918;SDS011;4998;51.024;13.828;2024-03-29T09:53:41;2.63;;;1.10;;
9918;SDS011;4998;51.024;13.828;2024-03-29T09:56:09;2.20;;;1.10;;
9918;SDS011;4998;51.024;13.828;2024-03-29T09:58:37;1.30;;;1.00;;
9918;SDS011;4998;51.024;13.828;2024-03-29T10:01:05;1.73;;;1.37;;
9918;SDS011;4998;51.024;13.828;2024-03-29T10:03:36;2.13;;;1.33;;
9918;SDS011;4998;51.024;13.828;2024-03-29T10:06:07;1.30;;;1.10;;
9918;SDS011;4998;51.024;13.828;2024-03-29T10:08:38;0.97;;;0.87;;
9918;SDS011;4998;51.024;13.828;2024-03-29T10:11:05;1.50;;;1.40;;
9918;SDS011;4998;51.024;13.828;2024-03-29T10:13:32;1.20;;;1.10;;
9918;SDS011;4998;51.024;13.828;2024-03-29T10:16:00;1.00;;;1.00;;
9918;SDS011;4998;51.024;13.828;2024-03-29T10:18:28;1.73;;;1.20;;
9918;SDS011;4998;51.024;13.828;2024-03-29T10:21:00;1.53;;;1.20;;
9918;SDS011;4998;51.024;13.828;2024-03-29T10:23:30;2.13;;;1.20;;
9918;SDS011;4998;51.024;13.828;2024-03-29T10:25:58;1.50;;;1.20;;
9918;SDS011;4998;51.024;13.828;2024-03-29T10:30:56;1.10;;;1.03;;
9918;SDS011;4998;51.024;13.828;2024-03-29T10:33:23;1.23;;;1.10;;
9918;SDS011;4998;51.024;13.828;2024-03-29T10:35:55;1.20;;;1.10;;
9918;SDS011;4998;51.024;13.828;2024-03-29T10:38:24;1.10;;;1.10;;
9918;SDS011;4998;51.024;13.828;2024-03-29T10:40:53;1.20;;;1.10;;
9918;SDS011;4998;51.024;13.828;2024-03-29T10:43:21;1.27;;;1.17;;
9918;SDS011;4998;51.024;13.828;2024-03-29T10:45:49;2.33;;;1.40;;
9918;SDS011;4998;51.024;13.828;2024-03-29T10:48:20;1.70;;;1.30;;
9918;SDS011;4998;51.024;13.828;2024-03-29T10:50:48;2.40;;;1.70;;
9918;SDS011;4998;51.024;13.828;2024-03-29T10:53:17;1.50;;;1.40;;
9918;SDS011;4998;51.024;13.828;2024-03-29T10:55:45;1.67;;;1.30;;
9918;SDS011;4998;51.024;13.828;2024-03-29T10:58:14;1.67;;;1.20;;
9918;SDS011;4998;51.024;13.828;2024-03-29T11:00:45;1.40;;;1.30;;
9918;SDS011;4998;51.024;13.828;2024-03-29T11:03:18;1.30;;;1.20;;
9918;SDS011;4998;51.024;13.828;2024-03-29T11:05:52;1.43;;;1.23;;
9918;SDS011;4998;51.024;13.828;2024-03-29T11:08:26;1.63;;;1.20;;
9918;SDS011;4998;51.024;13.828;2024-03-29T11:10:59;2.93;;;1.43;;
9918;SDS011;4998;51.024;13.828;2024-03-29T11:13:32;2.17;;;1.30;;
9918;SDS011;4998;51.024;13.828;2024-03-29T11:16:03;3.40;;;1.50;;
9918;SDS011;4998;51.024;13.828;2024-03-29T11:18:31;2.00;;;1.90;;
9918;SDS011;4998;51.024;13.828;2024-03-29T11:20:59;1.40;;;1.30;;
9918;SDS011;4998;51.024;13.828;2024-03-29T11:23:31;1.80;;;1.67;;
9918;SDS011;4998;51.024;13.828;2024-03-29T11:25:59;1.73;;;1.30;;
9918;SDS011;4998;51.024;13.828;2024-03-29T11:28:28;22.83;;;16.83;;
9918;SDS011;4998;51.024;13.828;2024-03-29T11:31:00;22.20;;;18.70;;
9918;SDS011;4998;51.024;13.828;2024-03-29T11:33:33;10.03;;;8.30;;
9918;SDS011;4998;51.024;13.828;2024-03-29T11:36:06;6.20;;;4.33;;
9918;SDS011;4998;51.024;13.828;2024-03-29T11:38:36;2.73;;;2.53;;
9918;SDS011;4998;51.024;13.828;2024-03-29T11:41:05;2.10;;;1.90;;
9918;SDS011;4998;51.024;13.828;2024-03-29T11:43:35;41.07;;;31.93;;
9918;SDS011;4998;51.024;13.828;2024-03-29T11:46:05;21.23;;;16.80;;
9918;SDS011;4998;51.024;13.828;2024-03-29T11:48:33;10.60;;;8.83;;
9918;SDS011;4998;51.024;13.828;2024-03-29T11:51:02;4.47;;;4.07;;
9918;SDS011;4998;51.024;13.828;2024-03-29T11:53:30;3.10;;;2.73;;
9918;SDS011;4998;51.024;13.828;2024-03-29T11:55:58;2.37;;;2.17;;
9918;SDS011;4998;51.024;13.828;2024-03-29T11:58:26;1.73;;;1.63;;
9918;SDS011;4998;51.024;13.828;2024-03-29T12:00:56;1.60;;;1.50;;
9918;SDS011;4998;51.024;13.828;2024-03-29T12:03:25;1.47;;;1.37;;
9918;SDS011;4998;51.024;13.828;2024-03-29T12:05:53;2.00;;;1.20;;
9918;SDS011;4998;51.024;13.828;2024-03-29T12:08:24;1.77;;;1.30;;
9918;SDS011;4998;51.024;13.828;2024-03-29T12:10:52;1.20;;;1.10;;
9918;SDS011;4998;51.024;13.828;2024-03-29T12:13:19;1.93;;;1.50;;
9918;SDS011;4998;51.024;13.828;2024-03-29T12:15:46;1.67;;;1.20;;
9918;SDS011;4998;51.024;13.828;2024-03-29T12:18:15;3.90;;;1.43;;
9918;SDS011;4998;51.024;13.828;2024-03-29T12:20:42;21.90;;;16.77;;
9918;SDS011;4998;51.024;13.828;2024-03-29T12:23:15;26.33;;;20.70;;
9918;SDS011;4998;51.024;13.828;2024-03-29T12:25:42;14.60;;;11.30;;
9918;SDS011;4998;51.024;13.828;2024-03-29T12:28:10;7.10;;;5.60;;
9918;SDS011;4998;51.024;13.828;2024-03-29T12:30:40;4.33;;;3.70;;
9918;SDS011;4998;51.024;13.828;2024-03-29T12:33:11;2.70;;;2.33;;
9918;SDS011;4998;51.024;13.828;2024-03-29T12:35:42;2.23;;;1.60;;
9918;SDS011;4998;51.024;13.828;2024-03-29T12:38:10;1.60;;;1.50;;
9918;SDS011;4998;51.024;13.828;2024-03-29T12:40:40;1.50;;;1.40;;
9918;SDS011;4998;51.024;13.828;2024-03-29T12:43:09;1.40;;;1.30;;
9918;SDS011;4998;51.024;13.828;2024-03-29T12:45:38;1.30;;;1.20;;
9918;SDS011;4998;51.024;13.828;2024-03-29T12:48:09;1.30;;;1.20;;
9918;SDS011;4998;51.024;13.828;2024-03-29T12:50:39;1.50;;;1.20;;
9918;SDS011;4998;51.024;13.828;2024-03-29T12:53:09;18.87;;;13.83;;
9918;SDS011;4998;51.024;13.828;2024-03-29T12:55:39;17.10;;;12.40;;
9918;SDS011;4998;51.024;13.828;2024-03-29T12:58:09;10.60;;;8.63;;
9918;SDS011;4998;51.024;13.828;2024-03-29T13:00:37;4.80;;;4.20;;
9918;SDS011;4998;51.024;13.828;2024-03-29T13:03:06;3.03;;;2.73;;
9918;SDS011;4998;51.024;13.828;2024-03-29T13:05:34;2.07;;;1.90;;
9918;SDS011;4998;51.024;13.828;2024-03-29T13:08:07;1.60;;;1.50;;
9918;SDS011;4998;51.024;13.828;2024-03-29T13:10:35;1.30;;;1.20;;
9918;SDS011;4998;51.024;13.828;2024-03-29T13:13:04;1.33;;;1.23;;
9918;SDS011;4998;51.024;13.828;2024-03-29T13:15:32;1.30;;;1.20;;
9918;SDS011;4998;51.024;13.828;2024-03-29T13:18:01;2.43;;;1.30;;
9918;SDS011;4998;51.024;13.828;2024-03-29T13:20:29;1.30;;;1.20;;
9918;SDS011;4998;51.024;13.828;2024-03-29T13:22:58;1.43;;;1.20;;
9918;SDS011;4998;51.024;13.828;2024-03-29T13:25:28;1.00;;;1.00;;
9918;SDS011;4998;51.024;13.828;2024-03-29T13:27:55;42.80;;;34.50;;
9918;SDS011;4998;51.024;13.828;2024-03-29T13:30:22;34.90;;;27.07;;
9918;SDS011;4998;51.024;13.828;2024-03-29T13:32:50;16.33;;;12.70;;
9918;SDS011;4998;51.024;13.828;2024-03-29T13:35:18;5.87;;;5.27;;
9918;SDS011;4998;51.024;13.828;2024-03-29T13:37:47;3.50;;;3.20;;
9918;SDS011;4998;51.024;13.828;2024-03-29T13:40:15;1.73;;;1.63;;
9918;SDS011;4998;51.024;13.828;2024-03-29T13:42:45;1.33;;;1.23;;
9918;SDS011;4998;51.024;13.828;2024-03-29T13:45:14;1.20;;;1.10;;
9918;SDS011;4998;51.024;13.828;2024-03-29T13:47:42;1.17;;;1.00;;
9918;SDS011;4998;51.024;13.828;2024-03-29T13:50:11;0.80;;;0.80;;
9918;SDS011;4998;51.024;13.828;2024-03-29T13:52:40;1.17;;;1.00;;
9918;SDS011;4998;51.024;13.828;2024-03-29T13:55:08;1.93;;;0.93;;
9918;SDS011;4998;51.024;13.828;2024-03-29T13:57:35;1.43;;;1.10;;
9918;SDS011;4998;51.024;13.828;2024-03-29T14:00:04;1.10;;;1.00;;
9918;SDS011;4998;51.024;13.828;2024-03-29T14:02:32;1.00;;;1.00;;
9918;SDS011;4998;51.024;13.828;2024-03-29T14:05:00;1.20;;;1.10;;
9918;SDS011;4998;51.024;13.828;2024-03-29T14:07:27;1.57;;;1.47;;
9918;SDS011;4998;51.024;13.828;2024-03-29T14:09:55;1.27;;;1.17;;
9918;SDS011;4998;51.024;13.828;2024-03-29T14:12:23;1.40;;;1.30;;
9918;SDS011;4998;51.024;13.828;2024-03-29T14:14:51;13.60;;;12.07;;
9918;SDS011;4998;51.024;13.828;2024-03-29T14:17:20;10.90;;;8.53;;
9918;SDS011;4998;51.024;13.828;2024-03-29T14:19:48;5.67;;;4.90;;
9918;SDS011;4998;51.024;13.828;2024-03-29T14:22:16;3.30;;;3.00;;
9918;SDS011;4998;51.024;13.828;2024-03-29T14:24:45;2.20;;;2.00;;
9918;SDS011;4998;51.024;13.828;2024-03-29T14:27:12;1.50;;;1.40;;
9918;SDS011;4998;51.024;13.828;2024-03-29T14:29:39;1.40;;;1.30;;
9918;SDS011;4998;51.024;13.828;2024-03-29T14:32:10;1.30;;;1.20;;
9918;SDS011;4998;51.024;13.828;2024-03-29T14:34:39;1.20;;;1.20;;
9918;SDS011;4998;51.024;13.828;2024-03-29T14:37:11;2.30;;;2.10;;
9918;SDS011;4998;51.024;13.828;2024-03-29T14:39:41;12.13;;;6.27;;
9918;SDS011;4998;51.024;13.828;2024-03-29T14:42:09;11.70;;;7.53;;
9918;SDS011;4998;51.024;13.828;2024-03-29T14:44:38;16.13;;;9.97;;
9918;SDS011;4998;51.024;13.828;2024-03-29T14:47:06;41.63;;;25.50;;
9918;SDS011;4998;51.024;13.828;2024-03-29T14:49:33;55.20;;;41.57;;
9918;SDS011;4998;51.024;13.828;2024-03-29T14:52:02;32.90;;;25.67;;
9918;SDS011;4998;51.024;13.828;2024-03-29T14:54:30;26.93;;;17.97;;
9918;SDS011;4998;51.024;13.828;2024-03-29T15:06:42;5.40;;;3.20;;
9918;SDS011;4998;51.024;13.828;2024-03-29T15:12:30;4.73;;;2.27;;
9918;SDS011;4998;51.024;13.828;2024-03-29T15:14:57;2.10;;;1.90;;
9918;SDS011;4998;51.024;13.828;2024-03-29T15:17:24;1.90;;;1.70;;
9918;SDS011;4998;51.024;13.828;2024-03-29T15:19:51;2.33;;;2.13;;
9918;SDS011;4998;51.024;13.828;2024-03-29T15:22:19;2.57;;;2.10;;